createdAt,value
2022-08-05T00:00:46.742Z,22.19
2022-08-05T00:03:16.746Z,22.13
2022-08-05T00:06:04.886Z,22.04
2022-08-05T00:08:35.099Z,22.01
2022-08-05T00:11:20.627Z,22.13
2022-08-05T00:13:54.582Z,22.14
2022-08-05T00:16:36.553Z,22.21
2022-08-05T00:19:08.787Z,22.22
2022-08-05T00:21:35.745Z,22.18
2022-08-05T00:24:11.105Z,22.01
2022-08-05T00:26:46.734Z,21.77
2022-08-05T00:29:18.466Z,21.66
2022-08-05T00:32:10.876Z,21.52
2022-08-05T00:34:56.277Z,21.45
2022-08-05T00:37:23.403Z,21.38
2022-08-05T00:39:58.435Z,21.33
2022-08-05T00:45:00.919Z,21.20
2022-08-05T00:47:53.033Z,21.27
2022-08-05T00:50:14.537Z,21.13
2022-08-05T00:52:42.021Z,21.20
2022-08-05T00:55:12.362Z,21.20
2022-08-05T00:57:58.720Z,21.13
2022-08-05T01:00:28.030Z,21.06
2022-08-05T01:02:56.191Z,21.07
2022-08-05T01:05:23.675Z,21.13
2022-08-05T01:08:40.148Z,21.18
2022-08-05T01:10:52.355Z,21.18
2022-08-05T01:13:57.527Z,21.09
2022-08-05T01:16:26.312Z,21.14
2022-08-05T01:19:05.465Z,21.20
2022-08-05T01:21:45.192Z,21.33
2022-08-05T01:24:45.114Z,21.18
2022-08-05T01:27:23.796Z,21.23
2022-08-05T01:29:54.662Z,21.28
2022-08-05T01:32:27.728Z,21.35
2022-08-05T01:35:02.249Z,21.37
2022-08-05T01:37:51.871Z,21.34
2022-08-05T01:40:27.933Z,21.21
2022-08-05T01:42:57.816Z,21.27
2022-08-05T01:45:26.556Z,21.24
2022-08-05T01:48:03.294Z,21.26
2022-08-05T01:50:40.239Z,21.17
2022-08-05T01:53:55.201Z,21.17
2022-08-05T01:56:11.545Z,21.08
2022-08-05T01:58:45.395Z,21.09
2022-08-05T02:01:14.615Z,21.07
2022-08-05T02:03:51.808Z,21.11
2022-08-05T02:06:37.756Z,21.09
2022-08-05T02:09:06.206Z,21.18
2022-08-05T02:12:01.677Z,21.29
2022-08-05T02:14:34.609Z,21.36
2022-08-05T02:17:16.883Z,21.67
2022-08-05T02:20:07.593Z,21.80
2022-08-05T02:22:42.016Z,21.85
2022-08-05T02:25:14.509Z,21.85
2022-08-05T02:27:58.038Z,21.78
2022-08-05T02:30:32.464Z,21.68
2022-08-05T02:33:03.145Z,22.02
2022-08-05T02:35:37.831Z,22.01
2022-08-05T02:38:13.335Z,21.83
2022-08-05T02:40:47.452Z,21.75
2022-08-05T02:43:16.822Z,21.79
2022-08-05T02:45:52.331Z,21.61
2022-08-05T02:48:29.527Z,21.60
2022-08-05T02:51:00.133Z,21.59
2022-08-05T02:53:39.065Z,21.64
2022-08-05T02:56:09.663Z,21.58
2022-08-05T02:58:44.258Z,21.74
2022-08-05T03:01:23.518Z,21.52
2022-08-05T03:04:03.383Z,21.43
2022-08-05T03:06:55.040Z,21.35
2022-08-05T03:09:36.515Z,21.26
2022-08-05T03:12:05.913Z,21.16
2022-08-05T03:14:32.759Z,21.16
2022-08-05T03:17:00.194Z,21.05
2022-08-05T03:19:34.199Z,21.03
2022-08-05T03:22:03.195Z,21.04
2022-08-05T03:24:32.442Z,21.05
2022-08-05T03:27:00.871Z,20.94
2022-08-05T03:29:45.652Z,21.01
2022-08-05T03:32:15.706Z,21.03
2022-08-05T03:34:51.266Z,21.06
2022-08-05T03:37:20.291Z,21.14
2022-08-05T03:39:58.551Z,21.29
2022-08-05T03:42:27.108Z,21.23
2022-08-05T03:44:55.731Z,21.29
2022-08-05T03:47:24.230Z,21.16
2022-08-05T03:49:52.473Z,21.15
2022-08-05T03:52:37.117Z,21.08
2022-08-05T03:56:06.097Z,20.85
2022-08-05T03:58:12.796Z,20.83
2022-08-05T04:00:42.054Z,20.86
2022-08-05T04:03:26.611Z,20.68
2022-08-05T04:05:59.235Z,20.79
2022-08-05T04:08:36.438Z,20.88
2022-08-05T04:11:05.210Z,20.92
2022-08-05T04:13:49.883Z,20.90
2022-08-05T04:16:24.250Z,20.98
2022-08-05T04:18:53.978Z,21.17
2022-08-05T04:22:09.220Z,21.13
2022-08-05T04:24:09.153Z,21.31
2022-08-05T04:26:45.783Z,21.56
2022-08-05T04:29:13.479Z,21.71
2022-08-05T04:31:41.344Z,21.75
2022-08-05T04:34:32.890Z,21.75
2022-08-05T04:36:56.770Z,21.70
2022-08-05T04:39:23.965Z,21.94
2022-08-05T04:41:51.401Z,22.03
2022-08-05T04:44:21.395Z,22.12
2022-08-05T04:46:57.000Z,22.38
2022-08-05T04:49:39.079Z,22.51
2022-08-05T04:52:12.618Z,22.41
2022-08-05T04:54:39.453Z,22.72
2022-08-05T04:57:06.256Z,22.93
2022-08-05T04:59:39.100Z,22.99
2022-08-05T05:02:36.680Z,23.12
2022-08-05T05:05:02.320Z,23.23
2022-08-05T05:07:32.673Z,23.62
2022-08-05T05:10:01.948Z,23.46
2022-08-05T05:12:29.353Z,23.51
2022-08-05T05:14:56.203Z,23.90
2022-08-05T05:17:24.598Z,24.20
2022-08-05T05:19:56.459Z,24.22
2022-08-05T05:22:26.107Z,24.29
2022-08-05T05:24:58.536Z,24.37
2022-08-05T05:27:44.730Z,24.74
2022-08-05T05:30:29.565Z,24.93
2022-08-05T05:33:00.165Z,24.94
2022-08-05T05:35:34.191Z,24.90
2022-08-05T05:38:05.617Z,25.02
2022-08-05T05:40:35.770Z,25.10
2022-08-05T05:43:03.248Z,25.06
2022-08-05T05:45:30.292Z,25.26
2022-08-05T05:48:06.035Z,25.44
2022-08-05T05:50:42.568Z,25.30
2022-08-05T05:53:21.947Z,25.61
2022-08-05T05:55:52.178Z,26.08
2022-08-05T05:58:30.277Z,26.35
2022-08-05T06:01:02.451Z,26.76
2022-08-05T06:04:01.415Z,27.14
2022-08-05T06:06:28.060Z,27.53
2022-08-05T06:08:58.389Z,28.11
2022-08-05T06:11:25.161Z,28.06
2022-08-05T06:13:53.994Z,28.37
2022-08-05T06:16:30.748Z,28.38
2022-08-05T06:19:01.057Z,28.47
2022-08-05T06:21:35.888Z,28.24
2022-08-05T06:24:09.988Z,28.30
2022-08-05T06:26:45.895Z,28.50
2022-08-05T06:29:43.180Z,28.76
2022-08-05T06:32:05.817Z,29.14
2022-08-05T06:34:53.590Z,29.14
2022-08-05T06:37:58.159Z,29.14
2022-08-05T06:40:10.352Z,29.71
2022-08-05T06:42:38.074Z,29.49
2022-08-05T06:45:08.834Z,29.43
2022-08-05T06:48:37.478Z,29.48
2022-08-05T06:50:22.849Z,29.65
2022-08-05T06:52:58.560Z,29.94
2022-08-05T06:55:25.776Z,30.08
2022-08-05T06:57:58.043Z,30.40
2022-08-05T07:00:31.470Z,30.32
2022-08-05T07:02:58.312Z,30.16
2022-08-05T07:05:37.904Z,30.24
2022-08-05T07:08:11.000Z,30.18
2022-08-05T07:10:38.523Z,30.21
2022-08-05T07:13:57.497Z,30.21
2022-08-05T07:17:58.778Z,30.17
2022-08-05T07:22:16.743Z,30.44
2022-08-05T07:24:44.045Z,30.87
2022-08-05T07:27:20.259Z,30.87
2022-08-05T07:30:27.292Z,30.83
2022-08-05T07:32:38.744Z,31.08
2022-08-05T07:36:05.157Z,30.89
2022-08-05T07:37:56.921Z,31.36
2022-08-05T07:40:32.530Z,31.79
2022-08-05T07:42:59.987Z,32.09
2022-08-05T07:45:57.825Z,31.93
2022-08-05T07:49:02.440Z,32.09
2022-08-05T07:51:08.702Z,31.84
2022-08-05T07:53:51.284Z,31.78
2022-08-05T07:57:00.147Z,31.89
2022-08-05T07:59:08.505Z,31.56
2022-08-05T08:01:41.668Z,32.16
2022-08-05T08:04:23.629Z,31.87
2022-08-05T08:07:07.442Z,32.33
2022-08-05T08:09:44.523Z,32.00
2022-08-05T08:12:33.410Z,31.84
2022-08-05T08:15:02.592Z,31.54
2022-08-05T08:17:30.938Z,31.39
2022-08-05T08:20:42.835Z,31.93
2022-08-05T08:22:50.176Z,31.93
2022-08-05T08:25:27.178Z,32.24
2022-08-05T08:28:05.039Z,32.73
2022-08-05T08:30:40.890Z,33.03
2022-08-05T08:33:15.006Z,33.40
2022-08-05T08:35:53.126Z,32.99
2022-08-05T08:38:35.154Z,33.29
2022-08-05T08:41:08.613Z,33.33
2022-08-05T08:45:23.124Z,33.86
2022-08-05T08:46:27.514Z,32.81
2022-08-05T08:49:07.750Z,33.30
2022-08-05T08:52:03.773Z,33.29
2022-08-05T08:54:36.492Z,33.29
2022-08-05T08:57:11.362Z,33.20
2022-08-05T08:59:41.726Z,33.46
2022-08-05T09:02:16.710Z,33.17
2022-08-05T09:04:47.551Z,33.47
2022-08-05T09:07:39.419Z,33.04
2022-08-05T09:10:20.349Z,33.29
2022-08-05T09:12:50.980Z,32.97
2022-08-05T09:15:20.256Z,32.39
2022-08-05T09:17:49.738Z,32.86
2022-08-05T09:20:36.570Z,33.29
2022-08-05T09:23:18.471Z,33.47
2022-08-05T09:26:06.648Z,33.87
2022-08-05T09:28:37.619Z,33.56
2022-08-05T09:31:23.462Z,33.81
2022-08-05T09:34:04.431Z,33.82
2022-08-05T09:36:55.106Z,33.25
2022-08-05T09:39:27.635Z,32.52
2022-08-05T09:42:17.272Z,32.67
2022-08-05T09:44:51.706Z,33.08
2022-08-05T09:47:20.891Z,32.95
2022-08-05T09:50:01.082Z,33.27
2022-08-05T09:52:34.071Z,33.48
2022-08-05T09:55:58.037Z,33.82
2022-08-05T09:57:59.984Z,34.23
2022-08-05T10:00:27.842Z,33.79
2022-08-05T10:02:58.713Z,34.11
2022-08-05T10:05:27.980Z,34.12
2022-08-05T10:08:34.604Z,34.08
2022-08-05T10:10:53.864Z,33.82
2022-08-05T10:13:47.160Z,34.11
2022-08-05T10:16:37.804Z,34.00
2022-08-05T10:19:23.449Z,34.38
2022-08-05T10:21:58.735Z,34.53
2022-08-05T10:24:26.975Z,33.13
2022-08-05T10:26:56.486Z,33.23
2022-08-05T10:30:06.751Z,33.65
2022-08-05T10:32:51.500Z,33.38
2022-08-05T10:35:04.083Z,33.90
2022-08-05T10:37:40.474Z,33.21
2022-08-05T10:40:38.973Z,33.41
2022-08-05T10:43:31.104Z,33.77
2022-08-05T10:46:08.722Z,33.92
2022-08-05T10:48:57.055Z,34.27
2022-08-05T10:51:28.748Z,34.22
2022-08-05T10:53:58.270Z,34.61
2022-08-05T10:56:30.450Z,34.38
2022-08-05T10:59:11.438Z,34.06
2022-08-05T11:01:55.114Z,33.56
2022-08-05T11:04:36.520Z,32.71
2022-08-05T11:07:06.639Z,32.53
2022-08-05T11:09:50.556Z,32.44
2022-08-05T11:12:45.457Z,32.53
2022-08-05T11:15:21.145Z,32.53
2022-08-05T11:17:57.110Z,32.33
2022-08-05T11:20:47.649Z,32.29
2022-08-05T11:24:02.753Z,32.34
2022-08-05T11:26:32.130Z,32.25
2022-08-05T11:29:11.936Z,32.32
2022-08-05T11:31:57.937Z,32.50
2022-08-05T11:34:50.807Z,32.77
2022-08-05T11:38:30.517Z,33.34
2022-08-05T11:41:35.604Z,33.18
2022-08-05T11:44:04.926Z,33.17
2022-08-05T11:46:35.946Z,32.52
2022-08-05T11:49:05.481Z,32.80
2022-08-05T11:51:44.794Z,32.58
2022-08-05T11:54:33.619Z,33.20
2022-08-05T11:57:07.942Z,32.95
2022-08-05T11:59:49.763Z,32.64
2022-08-05T12:02:29.673Z,32.79
2022-08-05T12:04:59.962Z,33.72
2022-08-05T12:08:02.684Z,34.37
2022-08-05T12:10:23.015Z,34.20
2022-08-05T12:12:59.880Z,35.17
2022-08-05T12:15:37.962Z,35.38
2022-08-05T12:18:10.131Z,34.49
2022-08-05T12:20:38.967Z,33.51
2022-08-05T12:23:12.691Z,33.77
2022-08-05T12:25:56.622Z,33.69
2022-08-05T12:28:34.020Z,33.33
2022-08-05T12:31:02.476Z,33.27
2022-08-05T12:33:37.092Z,33.38
2022-08-05T12:36:08.838Z,34.00
2022-08-05T12:38:41.156Z,34.40
2022-08-05T12:41:13.525Z,34.90
2022-08-05T12:43:59.073Z,35.15
2022-08-05T12:46:31.388Z,35.33
2022-08-05T12:49:13.175Z,35.04
2022-08-05T12:52:13.746Z,33.55
2022-08-05T12:54:45.737Z,33.07
2022-08-05T12:57:13.383Z,33.05
2022-08-05T13:01:57.017Z,33.41
2022-08-05T13:02:41.714Z,33.45
2022-08-05T13:05:12.537Z,33.47
2022-08-05T13:07:59.252Z,33.43
2022-08-05T13:10:28.634Z,33.11
2022-08-05T13:12:58.179Z,33.22
2022-08-05T13:15:35.862Z,32.98
2022-08-05T13:18:08.674Z,32.53
2022-08-05T13:20:40.166Z,32.53
2022-08-05T13:23:07.623Z,32.46
2022-08-05T13:25:52.093Z,32.50
2022-08-05T13:28:22.382Z,32.33
2022-08-05T13:30:53.152Z,32.82
2022-08-05T13:34:21.305Z,33.97
2022-08-05T13:36:09.220Z,34.32
2022-08-05T13:38:41.899Z,34.69
2022-08-05T13:41:08.987Z,35.67
2022-08-05T13:43:44.467Z,36.23
2022-08-05T13:46:50.758Z,35.62
2022-08-05T13:49:10.565Z,35.94
2022-08-05T13:51:41.194Z,37.00
2022-08-05T13:54:15.043Z,37.02
2022-08-05T13:56:50.665Z,37.51
2022-08-05T13:59:24.125Z,37.42
2022-08-05T14:01:58.525Z,38.20
2022-08-05T14:04:49.128Z,37.82
2022-08-05T14:07:26.337Z,36.48
2022-08-05T14:10:10.360Z,37.28
2022-08-05T14:12:37.261Z,36.56
2022-08-05T14:16:06.161Z,35.50
2022-08-05T14:17:55.109Z,35.87
2022-08-05T14:20:27.767Z,35.91
2022-08-05T14:22:55.026Z,34.90
2022-08-05T14:25:22.777Z,34.26
2022-08-05T14:27:55.869Z,34.22
2022-08-05T14:30:22.810Z,33.96
2022-08-05T14:32:53.907Z,33.45
2022-08-05T14:35:22.920Z,33.17
2022-08-05T14:37:55.031Z,32.59
2022-08-05T14:40:24.160Z,32.46
2022-08-05T14:42:50.985Z,32.53
2022-08-05T14:45:18.841Z,32.49
2022-08-05T14:48:03.210Z,32.42
2022-08-05T14:50:33.145Z,32.24
2022-08-05T14:53:06.776Z,32.03
2022-08-05T14:55:39.334Z,32.28
2022-08-05T14:58:12.025Z,32.09
2022-08-05T15:00:59.407Z,32.09
2022-08-05T15:03:33.216Z,32.20
2022-08-05T15:06:08.059Z,32.12
2022-08-05T15:09:01.072Z,32.34
2022-08-05T15:11:50.874Z,32.37
2022-08-05T15:14:35.773Z,32.64
2022-08-05T15:17:14.647Z,32.25
2022-08-05T15:19:56.409Z,32.13
2022-08-05T15:22:27.128Z,32.14
2022-08-05T15:24:56.236Z,32.33
2022-08-05T15:27:25.818Z,32.31
2022-08-05T15:29:56.615Z,32.26
2022-08-05T15:32:27.259Z,32.41
2022-08-05T15:34:56.602Z,32.45
2022-08-05T15:38:33.160Z,32.23
2022-08-05T15:41:03.465Z,32.33
2022-08-05T15:43:09.313Z,32.01
2022-08-05T15:45:44.502Z,31.75
2022-08-05T15:48:14.254Z,31.89
2022-08-05T15:50:43.753Z,31.81
2022-08-05T15:53:13.258Z,31.75
2022-08-05T15:56:04.055Z,31.77
2022-08-05T15:58:29.286Z,31.84
2022-08-05T16:01:11.537Z,31.90
2022-08-05T16:03:43.513Z,31.73
2022-08-05T16:06:11.161Z,31.91
2022-08-05T16:08:38.856Z,31.83
2022-08-05T16:11:08.016Z,31.48
2022-08-05T16:13:35.313Z,31.46
2022-08-05T16:16:03.539Z,31.66
2022-08-05T16:18:31.105Z,31.69
2022-08-05T16:20:59.811Z,31.52
2022-08-05T16:23:54.260Z,31.31
2022-08-05T16:26:17.548Z,31.16
2022-08-05T16:28:44.801Z,31.10
2022-08-05T16:31:11.542Z,30.99
2022-08-05T16:33:41.519Z,30.59
2022-08-05T16:36:08.949Z,30.43
2022-08-05T16:38:35.794Z,30.28
2022-08-05T16:42:12.638Z,30.17
2022-08-05T16:43:56.436Z,29.92
2022-08-05T16:46:24.374Z,29.89
2022-08-05T16:48:52.099Z,29.88
2022-08-05T16:51:19.561Z,29.89
2022-08-05T16:54:06.167Z,29.89
2022-08-05T16:56:35.129Z,29.70
2022-08-05T16:59:08.066Z,29.79
2022-08-05T17:01:53.727Z,29.70
2022-08-05T17:04:27.823Z,29.65
2022-08-05T17:06:56.997Z,29.69
2022-08-05T17:09:29.604Z,29.62
2022-08-05T17:11:59.631Z,29.44
2022-08-05T17:14:37.677Z,29.23
2022-08-05T17:17:14.465Z,29.05
2022-08-05T17:19:45.278Z,29.20
2022-08-05T17:22:24.892Z,29.20
2022-08-05T17:24:57.905Z,29.08
2022-08-05T17:27:34.274Z,29.11
2022-08-05T17:30:02.381Z,29.08
2022-08-05T17:32:29.868Z,28.82
2022-08-05T17:34:58.281Z,28.76
2022-08-05T17:37:40.066Z,28.71
2022-08-05T17:40:12.681Z,28.62
2022-08-05T17:42:41.598Z,28.54
2022-08-05T17:45:20.074Z,28.59
2022-08-05T17:47:53.422Z,28.57
2022-08-05T17:50:28.406Z,28.43
2022-08-05T17:53:00.739Z,28.41
2022-08-05T17:55:34.266Z,28.30
2022-08-05T17:58:06.963Z,28.28
2022-08-05T18:00:36.264Z,27.94
2022-08-05T18:03:07.873Z,27.77
2022-08-05T18:05:36.228Z,27.91
2022-08-05T18:08:03.897Z,27.78
2022-08-05T18:10:33.717Z,27.57
2022-08-05T18:13:01.926Z,27.49
2022-08-05T18:15:35.196Z,27.41
2022-08-05T18:18:10.851Z,27.34
2022-08-05T18:20:38.890Z,27.25
2022-08-05T18:23:11.514Z,27.20
2022-08-05T18:25:45.249Z,27.12
2022-08-05T18:28:17.815Z,26.94
2022-08-05T18:30:51.233Z,26.95
2022-08-05T18:33:22.541Z,26.87
2022-08-05T18:36:03.711Z,26.70
2022-08-05T18:38:37.251Z,26.70
2022-08-05T18:41:55.344Z,26.57
2022-08-05T18:43:54.372Z,26.22
2022-08-05T18:46:21.125Z,26.23
2022-08-05T18:48:52.625Z,26.11
2022-08-05T18:52:04.015Z,26.00
2022-08-05T18:54:31.389Z,25.78
2022-08-05T18:57:00.938Z,25.79
2022-08-05T18:59:43.466Z,25.77
2022-08-05T19:02:27.878Z,25.64
2022-08-05T19:05:02.210Z,25.60
2022-08-05T19:07:46.391Z,25.48
2022-08-05T19:10:15.049Z,25.38
2022-08-05T19:12:43.009Z,25.26
2022-08-05T19:15:57.869Z,25.23
2022-08-05T19:18:08.306Z,25.18
2022-08-05T19:20:41.384Z,25.10
2022-08-05T19:23:08.718Z,24.95
2022-08-05T19:26:02.153Z,24.97
2022-08-05T19:28:32.741Z,24.90
2022-08-05T19:31:01.121Z,24.84
2022-08-05T19:33:36.391Z,24.79
2022-08-05T19:36:06.383Z,24.50
2022-08-05T19:38:35.500Z,24.77
2022-08-05T19:41:07.388Z,24.70
2022-08-05T19:44:05.423Z,24.65
2022-08-05T19:46:30.278Z,24.56
2022-08-05T19:49:03.349Z,24.60
2022-08-05T19:52:13.185Z,24.40
2022-08-05T19:54:31.105Z,24.39
2022-08-05T19:57:09.216Z,24.50
2022-08-05T19:59:56.618Z,24.52
2022-08-05T20:02:25.961Z,24.37
2022-08-05T20:04:54.892Z,24.36
2022-08-05T20:07:46.444Z,24.35
2022-08-05T20:10:13.417Z,24.29
2022-08-05T20:12:47.718Z,24.28
2022-08-05T20:15:23.465Z,24.22
2022-08-05T20:18:10.634Z,24.13
2022-08-05T20:20:55.093Z,24.26
2022-08-05T20:23:22.691Z,24.03
2022-08-05T20:25:49.480Z,24.16
2022-08-05T20:28:19.329Z,24.06
2022-08-05T20:30:46.366Z,23.93
2022-08-05T20:33:16.187Z,23.82
2022-08-05T20:35:45.572Z,23.86
2022-08-05T20:38:20.246Z,23.89
2022-08-05T20:40:55.507Z,23.87
2022-08-05T20:43:57.579Z,23.88
2022-08-05T20:46:12.455Z,23.95
2022-08-05T20:48:45.495Z,23.81
2022-08-05T20:51:18.084Z,23.79
2022-08-05T20:53:55.125Z,23.74
2022-08-05T20:56:28.987Z,23.66
2022-08-05T20:59:00.159Z,23.52
2022-08-05T21:01:40.690Z,23.61
2022-08-05T21:04:10.653Z,23.45
2022-08-05T21:06:45.697Z,23.55
2022-08-05T21:09:15.014Z,23.45
2022-08-05T21:12:10.395Z,23.54
2022-08-05T21:14:35.229Z,23.38
2022-08-05T21:17:05.098Z,23.46
2022-08-05T21:19:46.648Z,23.48
2022-08-05T21:22:23.104Z,23.45
2022-08-05T21:24:51.595Z,23.47
2022-08-05T21:27:20.676Z,23.30
2022-08-05T21:29:54.211Z,23.35
2022-08-05T21:32:24.541Z,23.46
2022-08-05T21:35:16.756Z,23.38
2022-08-05T21:37:47.106Z,23.28
2022-08-05T21:40:14.383Z,23.17
2022-08-05T21:42:44.562Z,23.07
2022-08-05T21:45:24.103Z,23.12
2022-08-05T21:47:56.124Z,23.08
2022-08-05T21:50:25.017Z,23.05
2022-08-05T21:52:51.790Z,23.06
2022-08-05T21:55:23.726Z,23.03
2022-08-05T22:01:00.896Z,22.83
2022-08-05T22:03:52.230Z,22.97
2022-08-05T22:06:16.545Z,22.96
2022-08-05T22:08:52.071Z,22.89
2022-08-05T22:11:35.008Z,22.76
2022-08-05T22:14:31.451Z,22.76
2022-08-05T22:16:55.904Z,22.64
2022-08-05T22:20:01.158Z,22.68
2022-08-05T22:22:11.835Z,22.64
2022-08-05T22:24:57.760Z,22.69
2022-08-05T22:28:08.470Z,22.64
2022-08-05T22:30:32.441Z,22.48
2022-08-05T22:33:02.562Z,22.56
2022-08-05T22:35:38.570Z,22.60
2022-08-05T22:38:15.283Z,22.61
2022-08-05T22:40:42.165Z,22.64
2022-08-05T22:43:36.839Z,22.62
2022-08-05T22:46:12.310Z,22.62
2022-08-05T22:48:47.845Z,22.60
2022-08-05T22:51:22.443Z,22.63
2022-08-05T22:53:50.295Z,22.66
2022-08-05T22:56:18.087Z,22.71
2022-08-05T22:58:58.402Z,22.70
2022-08-05T23:01:50.912Z,22.69
2022-08-05T23:04:14.213Z,22.65
2022-08-05T23:06:41.484Z,22.63
2022-08-05T23:09:27.155Z,22.59
2022-08-05T23:11:56.353Z,22.68
2022-08-05T23:14:32.363Z,22.61
2022-08-05T23:17:24.610Z,22.52
2022-08-05T23:20:03.864Z,22.67
2022-08-05T23:22:32.648Z,22.92
2022-08-05T23:25:00.081Z,23.18
2022-08-05T23:27:31.540Z,23.12
2022-08-05T23:30:10.731Z,23.07
2022-08-05T23:32:37.937Z,22.97
2022-08-05T23:35:12.310Z,22.88
2022-08-05T23:37:39.337Z,22.59
2022-08-05T23:40:09.329Z,22.62
2022-08-05T23:42:38.024Z,22.64
2022-08-05T23:45:14.121Z,22.52
2022-08-05T23:47:47.667Z,22.44
2022-08-05T23:50:14.944Z,22.33
2022-08-05T23:52:50.007Z,22.20
2022-08-05T23:55:19.294Z,22.29
2022-08-05T23:57:49.044Z,22.27
